sensor_id;sensor_type;location;lat;lon;timestamp;P1;durP1;ratioP1;P2;durP2;ratioP2
12593;SDS011;6362;50.208;9.182;2023-02-16T00:01:48;36.90;;;19.42;;
12593;SDS011;6362;50.208;9.182;2023-02-16T00:04:17;47.55;;;21.88;;
12593;SDS011;6362;50.208;9.182;2023-02-16T00:06:53;38.85;;;19.88;;
12593;SDS011;6362;50.208;9.182;2023-02-16T00:09:20;42.38;;;20.20;;
12593;SDS011;6362;50.208;9.182;2023-02-16T00:11:47;48.00;;;20.95;;
12593;SDS011;6362;50.208;9.182;2023-02-16T00:14:32;65.85;;;22.08;;
12593;SDS011;6362;50.208;9.182;2023-02-16T00:17:00;37.75;;;20.13;;
12593;SDS011;6362;50.208;9.182;2023-02-16T00:19:28;52.15;;;20.73;;
12593;SDS011;6362;50.208;9.182;2023-02-16T00:21:54;38.95;;;19.58;;
12593;SDS011;6362;50.208;9.182;2023-02-16T00:24:21;40.90;;;19.17;;
12593;SDS011;6362;50.208;9.182;2023-02-16T00:26:48;51.65;;;19.73;;
12593;SDS011;6362;50.208;9.182;2023-02-16T00:31:49;48.30;;;19.40;;
12593;SDS011;6362;50.208;9.182;2023-02-16T00:36:50;28.65;;;15.70;;
12593;SDS011;6362;50.208;9.182;2023-02-16T00:39:15;47.90;;;18.83;;
12593;SDS011;6362;50.208;9.182;2023-02-16T00:41:41;66.97;;;20.23;;
12593;SDS011;6362;50.208;9.182;2023-02-16T00:44:16;42.42;;;18.40;;
12593;SDS011;6362;50.208;9.182;2023-02-16T00:46:51;40.35;;;18.27;;
12593;SDS011;6362;50.208;9.182;2023-02-16T00:49:17;68.88;;;19.02;;
12593;SDS011;6362;50.208;9.182;2023-02-16T00:51:44;45.38;;;19.90;;
12593;SDS011;6362;50.208;9.182;2023-02-16T00:54:10;41.45;;;19.73;;
12593;SDS011;6362;50.208;9.182;2023-02-16T00:56:35;38.10;;;20.02;;
12593;SDS011;6362;50.208;9.182;2023-02-16T00:59:01;37.63;;;18.90;;
12593;SDS011;6362;50.208;9.182;2023-02-16T01:01:30;42.95;;;20.55;;
12593;SDS011;6362;50.208;9.182;2023-02-16T01:04:02;41.90;;;19.27;;
12593;SDS011;6362;50.208;9.182;2023-02-16T01:06:30;41.60;;;19.33;;
12593;SDS011;6362;50.208;9.182;2023-02-16T01:09:16;34.63;;;17.55;;
12593;SDS011;6362;50.208;9.182;2023-02-16T01:12:02;37.80;;;18.20;;
12593;SDS011;6362;50.208;9.182;2023-02-16T01:14:30;34.60;;;17.38;;
12593;SDS011;6362;50.208;9.182;2023-02-16T01:16:57;42.65;;;18.65;;
12593;SDS011;6362;50.208;9.182;2023-02-16T01:19:23;36.80;;;17.42;;
12593;SDS011;6362;50.208;9.182;2023-02-16T01:21:49;38.53;;;19.20;;
12593;SDS011;6362;50.208;9.182;2023-02-16T01:24:14;38.08;;;17.77;;
12593;SDS011;6362;50.208;9.182;2023-02-16T01:26:45;39.50;;;18.02;;
12593;SDS011;6362;50.208;9.182;2023-02-16T01:29:13;53.75;;;20.00;;
12593;SDS011;6362;50.208;9.182;2023-02-16T01:31:41;35.17;;;16.70;;
12593;SDS011;6362;50.208;9.182;2023-02-16T01:34:07;48.75;;;19.13;;
12593;SDS011;6362;50.208;9.182;2023-02-16T01:36:38;65.05;;;21.05;;
12593;SDS011;6362;50.208;9.182;2023-02-16T01:39:06;31.27;;;16.90;;
12593;SDS011;6362;50.208;9.182;2023-02-16T01:44:04;75.45;;;19.90;;
12593;SDS011;6362;50.208;9.182;2023-02-16T01:46:58;39.53;;;17.40;;
12593;SDS011;6362;50.208;9.182;2023-02-16T01:49:29;39.33;;;16.15;;
12593;SDS011;6362;50.208;9.182;2023-02-16T01:52:02;31.77;;;18.88;;
12593;SDS011;6362;50.208;9.182;2023-02-16T01:57:53;33.80;;;17.38;;
12593;SDS011;6362;50.208;9.182;2023-02-16T02:00:15;38.45;;;17.23;;
12593;SDS011;6362;50.208;9.182;2023-02-16T02:03:00;35.83;;;16.95;;
12593;SDS011;6362;50.208;9.182;2023-02-16T02:10:56;34.50;;;18.08;;
12593;SDS011;6362;50.208;9.182;2023-02-16T02:16:01;41.38;;;18.80;;
12593;SDS011;6362;50.208;9.182;2023-02-16T02:18:28;42.90;;;18.15;;
12593;SDS011;6362;50.208;9.182;2023-02-16T02:44:13;26.45;;;14.48;;
12593;SDS011;6362;50.208;9.182;2023-02-16T02:46:44;35.25;;;16.88;;
12593;SDS011;6362;50.208;9.182;2023-02-16T02:49:10;29.27;;;16.42;;
12593;SDS011;6362;50.208;9.182;2023-02-16T02:51:36;34.60;;;15.70;;
12593;SDS011;6362;50.208;9.182;2023-02-16T02:57:02;31.77;;;15.18;;
12593;SDS011;6362;50.208;9.182;2023-02-16T02:59:55;31.63;;;16.00;;
12593;SDS011;6362;50.208;9.182;2023-02-16T03:02:44;31.98;;;16.05;;
12593;SDS011;6362;50.208;9.182;2023-02-16T03:05:13;32.05;;;16.55;;
12593;SDS011;6362;50.208;9.182;2023-02-16T03:07:39;32.83;;;16.40;;
12593;SDS011;6362;50.208;9.182;2023-02-16T03:10:12;33.92;;;17.48;;
12593;SDS011;6362;50.208;9.182;2023-02-16T03:13:01;41.53;;;16.73;;
12593;SDS011;6362;50.208;9.182;2023-02-16T03:15:30;32.65;;;16.48;;
12593;SDS011;6362;50.208;9.182;2023-02-16T03:17:57;33.75;;;17.27;;
12593;SDS011;6362;50.208;9.182;2023-02-16T03:23:28;33.80;;;16.40;;
12593;SDS011;6362;50.208;9.182;2023-02-16T03:26:12;33.63;;;17.23;;
12593;SDS011;6362;50.208;9.182;2023-02-16T03:31:39;33.15;;;14.85;;
12593;SDS011;6362;50.208;9.182;2023-02-16T03:34:06;35.33;;;16.38;;
12593;SDS011;6362;50.208;9.182;2023-02-16T03:36:33;33.08;;;17.35;;
12593;SDS011;6362;50.208;9.182;2023-02-16T03:39:00;39.38;;;17.58;;
12593;SDS011;6362;50.208;9.182;2023-02-16T03:41:30;36.35;;;17.38;;
12593;SDS011;6362;50.208;9.182;2023-02-16T03:43:57;35.55;;;17.77;;
12593;SDS011;6362;50.208;9.182;2023-02-16T03:46:23;36.30;;;17.35;;
12593;SDS011;6362;50.208;9.182;2023-02-16T03:48:48;36.20;;;16.35;;
12593;SDS011;6362;50.208;9.182;2023-02-16T03:51:13;39.83;;;18.92;;
12593;SDS011;6362;50.208;9.182;2023-02-16T03:53:39;42.08;;;17.52;;
12593;SDS011;6362;50.208;9.182;2023-02-16T03:56:04;41.13;;;18.92;;
12593;SDS011;6362;50.208;9.182;2023-02-16T03:58:30;39.35;;;18.30;;
12593;SDS011;6362;50.208;9.182;2023-02-16T04:00:57;42.03;;;19.88;;
12593;SDS011;6362;50.208;9.182;2023-02-16T04:03:23;37.47;;;18.17;;
12593;SDS011;6362;50.208;9.182;2023-02-16T04:05:48;40.38;;;18.83;;
12593;SDS011;6362;50.208;9.182;2023-02-16T04:08:14;39.85;;;19.00;;
12593;SDS011;6362;50.208;9.182;2023-02-16T04:10:40;38.78;;;18.95;;
12593;SDS011;6362;50.208;9.182;2023-02-16T04:13:05;38.22;;;18.30;;
12593;SDS011;6362;50.208;9.182;2023-02-16T04:15:31;43.95;;;19.90;;
12593;SDS011;6362;50.208;9.182;2023-02-16T04:17:57;40.75;;;19.35;;
12593;SDS011;6362;50.208;9.182;2023-02-16T04:20:24;40.90;;;18.25;;
12593;SDS011;6362;50.208;9.182;2023-02-16T04:22:52;42.00;;;19.30;;
12593;SDS011;6362;50.208;9.182;2023-02-16T04:25:17;37.20;;;16.83;;
12593;SDS011;6362;50.208;9.182;2023-02-16T04:27:44;42.72;;;20.33;;
12593;SDS011;6362;50.208;9.182;2023-02-16T04:30:15;42.25;;;20.30;;
12593;SDS011;6362;50.208;9.182;2023-02-16T04:32:42;40.97;;;19.80;;
12593;SDS011;6362;50.208;9.182;2023-02-16T04:35:07;36.50;;;17.25;;
12593;SDS011;6362;50.208;9.182;2023-02-16T04:37:33;33.38;;;17.40;;
12593;SDS011;6362;50.208;9.182;2023-02-16T04:39:59;35.15;;;17.73;;
12593;SDS011;6362;50.208;9.182;2023-02-16T04:42:25;37.22;;;17.35;;
12593;SDS011;6362;50.208;9.182;2023-02-16T04:44:50;36.63;;;18.27;;
12593;SDS011;6362;50.208;9.182;2023-02-16T04:47:15;37.15;;;16.35;;
12593;SDS011;6362;50.208;9.182;2023-02-16T04:49:41;36.55;;;18.30;;
12593;SDS011;6362;50.208;9.182;2023-02-16T04:52:07;34.05;;;16.55;;
12593;SDS011;6362;50.208;9.182;2023-02-16T04:54:33;39.70;;;17.15;;
12593;SDS011;6362;50.208;9.182;2023-02-16T04:56:59;40.10;;;17.45;;
12593;SDS011;6362;50.208;9.182;2023-02-16T04:59:25;36.75;;;17.38;;
12593;SDS011;6362;50.208;9.182;2023-02-16T05:01:51;34.10;;;16.05;;
12593;SDS011;6362;50.208;9.182;2023-02-16T05:04:17;38.65;;;17.23;;
12593;SDS011;6362;50.208;9.182;2023-02-16T05:06:43;35.70;;;18.25;;
12593;SDS011;6362;50.208;9.182;2023-02-16T05:09:09;33.90;;;16.73;;
12593;SDS011;6362;50.208;9.182;2023-02-16T05:11:34;35.53;;;17.15;;
12593;SDS011;6362;50.208;9.182;2023-02-16T05:14:28;33.38;;;16.58;;
12593;SDS011;6362;50.208;9.182;2023-02-16T05:19:40;31.42;;;16.33;;
12593;SDS011;6362;50.208;9.182;2023-02-16T05:22:08;33.05;;;15.65;;
12593;SDS011;6362;50.208;9.182;2023-02-16T05:24:34;30.40;;;15.48;;
12593;SDS011;6362;50.208;9.182;2023-02-16T05:27:07;29.25;;;16.15;;
12593;SDS011;6362;50.208;9.182;2023-02-16T05:29:35;31.33;;;13.93;;
12593;SDS011;6362;50.208;9.182;2023-02-16T05:32:01;35.42;;;17.15;;
12593;SDS011;6362;50.208;9.182;2023-02-16T05:34:26;37.38;;;18.27;;
12593;SDS011;6362;50.208;9.182;2023-02-16T05:36:52;33.88;;;16.48;;
12593;SDS011;6362;50.208;9.182;2023-02-16T05:39:17;36.17;;;18.25;;
12593;SDS011;6362;50.208;9.182;2023-02-16T05:41:43;35.90;;;16.88;;
12593;SDS011;6362;50.208;9.182;2023-02-16T05:44:09;38.40;;;17.92;;
12593;SDS011;6362;50.208;9.182;2023-02-16T05:46:36;39.05;;;17.85;;
12593;SDS011;6362;50.208;9.182;2023-02-16T05:49:03;35.58;;;17.70;;
12593;SDS011;6362;50.208;9.182;2023-02-16T05:51:29;39.28;;;17.88;;
12593;SDS011;6362;50.208;9.182;2023-02-16T05:53:55;40.05;;;17.67;;
12593;SDS011;6362;50.208;9.182;2023-02-16T05:56:20;39.25;;;18.08;;
12593;SDS011;6362;50.208;9.182;2023-02-16T05:58:46;34.30;;;17.83;;
12593;SDS011;6362;50.208;9.182;2023-02-16T06:01:12;35.45;;;17.35;;
12593;SDS011;6362;50.208;9.182;2023-02-16T06:03:38;38.13;;;17.33;;
12593;SDS011;6362;50.208;9.182;2023-02-16T06:06:04;39.15;;;18.85;;
12593;SDS011;6362;50.208;9.182;2023-02-16T06:08:31;36.35;;;17.35;;
12593;SDS011;6362;50.208;9.182;2023-02-16T06:10:57;39.28;;;17.85;;
12593;SDS011;6362;50.208;9.182;2023-02-16T06:13:23;31.48;;;16.83;;
12593;SDS011;6362;50.208;9.182;2023-02-16T06:15:54;35.00;;;16.92;;
12593;SDS011;6362;50.208;9.182;2023-02-16T06:18:21;34.75;;;16.77;;
12593;SDS011;6362;50.208;9.182;2023-02-16T06:20:48;33.28;;;17.42;;
12593;SDS011;6362;50.208;9.182;2023-02-16T06:23:13;39.25;;;20.30;;
12593;SDS011;6362;50.208;9.182;2023-02-16T06:25:43;38.28;;;18.25;;
12593;SDS011;6362;50.208;9.182;2023-02-16T06:28:12;33.95;;;16.30;;
12593;SDS011;6362;50.208;9.182;2023-02-16T06:30:37;37.17;;;18.15;;
12593;SDS011;6362;50.208;9.182;2023-02-16T06:33:03;30.70;;;15.43;;
12593;SDS011;6362;50.208;9.182;2023-02-16T06:35:29;35.28;;;17.55;;
12593;SDS011;6362;50.208;9.182;2023-02-16T06:37:54;35.88;;;18.55;;
12593;SDS011;6362;50.208;9.182;2023-02-16T06:40:20;33.95;;;16.95;;
12593;SDS011;6362;50.208;9.182;2023-02-16T06:42:45;34.80;;;16.40;;
12593;SDS011;6362;50.208;9.182;2023-02-16T06:45:11;31.17;;;16.50;;
12593;SDS011;6362;50.208;9.182;2023-02-16T06:47:36;34.78;;;17.38;;
12593;SDS011;6362;50.208;9.182;2023-02-16T06:50:03;36.67;;;19.40;;
12593;SDS011;6362;50.208;9.182;2023-02-16T06:52:29;35.67;;;19.42;;
12593;SDS011;6362;50.208;9.182;2023-02-16T06:54:55;41.53;;;19.48;;
12593;SDS011;6362;50.208;9.182;2023-02-16T06:57:20;43.60;;;19.83;;
12593;SDS011;6362;50.208;9.182;2023-02-16T06:59:46;42.67;;;19.92;;
12593;SDS011;6362;50.208;9.182;2023-02-16T07:02:11;45.13;;;19.92;;
12593;SDS011;6362;50.208;9.182;2023-02-16T07:04:37;42.05;;;20.45;;
12593;SDS011;6362;50.208;9.182;2023-02-16T07:07:03;43.10;;;20.77;;
12593;SDS011;6362;50.208;9.182;2023-02-16T07:09:28;39.58;;;20.23;;
12593;SDS011;6362;50.208;9.182;2023-02-16T07:11:54;37.70;;;18.70;;
12593;SDS011;6362;50.208;9.182;2023-02-16T07:14:19;36.45;;;17.67;;
12593;SDS011;6362;50.208;9.182;2023-02-16T07:16:45;41.00;;;17.02;;
12593;SDS011;6362;50.208;9.182;2023-02-16T07:19:10;36.83;;;17.92;;
12593;SDS011;6362;50.208;9.182;2023-02-16T07:21:35;36.55;;;19.35;;
12593;SDS011;6362;50.208;9.182;2023-02-16T07:24:01;36.28;;;18.35;;
12593;SDS011;6362;50.208;9.182;2023-02-16T07:26:27;37.47;;;17.83;;
12593;SDS011;6362;50.208;9.182;2023-02-16T07:28:53;32.45;;;17.30;;
12593;SDS011;6362;50.208;9.182;2023-02-16T07:31:18;30.60;;;16.45;;
12593;SDS011;6362;50.208;9.182;2023-02-16T07:33:43;36.75;;;17.38;;
12593;SDS011;6362;50.208;9.182;2023-02-16T07:36:09;39.38;;;17.88;;
12593;SDS011;6362;50.208;9.182;2023-02-16T07:38:36;44.45;;;18.88;;
12593;SDS011;6362;50.208;9.182;2023-02-16T07:41:02;42.08;;;19.80;;
12593;SDS011;6362;50.208;9.182;2023-02-16T07:43:28;35.47;;;18.23;;
12593;SDS011;6362;50.208;9.182;2023-02-16T07:45:54;36.28;;;17.83;;
12593;SDS011;6362;50.208;9.182;2023-02-16T07:48:19;38.67;;;19.13;;
12593;SDS011;6362;50.208;9.182;2023-02-16T07:50:45;34.35;;;18.05;;
12593;SDS011;6362;50.208;9.182;2023-02-16T07:53:10;38.10;;;19.60;;
12593;SDS011;6362;50.208;9.182;2023-02-16T07:55:40;38.90;;;19.25;;
12593;SDS011;6362;50.208;9.182;2023-02-16T07:58:07;44.58;;;19.95;;
12593;SDS011;6362;50.208;9.182;2023-02-16T08:00:33;42.42;;;20.20;;
12593;SDS011;6362;50.208;9.182;2023-02-16T08:02:58;38.53;;;20.17;;
12593;SDS011;6362;50.208;9.182;2023-02-16T08:05:24;33.53;;;18.08;;
12593;SDS011;6362;50.208;9.182;2023-02-16T08:07:49;42.08;;;20.58;;
12593;SDS011;6362;50.208;9.182;2023-02-16T08:10:15;38.60;;;18.40;;
12593;SDS011;6362;50.208;9.182;2023-02-16T08:12:41;36.90;;;19.00;;
12593;SDS011;6362;50.208;9.182;2023-02-16T08:15:07;34.90;;;18.35;;
12593;SDS011;6362;50.208;9.182;2023-02-16T08:17:33;36.75;;;19.40;;
12593;SDS011;6362;50.208;9.182;2023-02-16T08:19:59;36.97;;;18.80;;
12593;SDS011;6362;50.208;9.182;2023-02-16T08:22:24;36.70;;;18.38;;
12593;SDS011;6362;50.208;9.182;2023-02-16T08:24:50;38.53;;;19.10;;
12593;SDS011;6362;50.208;9.182;2023-02-16T08:27:15;41.28;;;20.42;;
12593;SDS011;6362;50.208;9.182;2023-02-16T08:29:41;36.40;;;19.20;;
12593;SDS011;6362;50.208;9.182;2023-02-16T08:32:09;38.83;;;20.58;;
12593;SDS011;6362;50.208;9.182;2023-02-16T08:34:36;38.35;;;19.90;;
12593;SDS011;6362;50.208;9.182;2023-02-16T08:37:02;38.47;;;19.15;;
12593;SDS011;6362;50.208;9.182;2023-02-16T08:39:29;38.20;;;19.48;;
12593;SDS011;6362;50.208;9.182;2023-02-16T08:41:57;34.53;;;19.13;;
12593;SDS011;6362;50.208;9.182;2023-02-16T08:44:24;40.55;;;19.05;;
12593;SDS011;6362;50.208;9.182;2023-02-16T08:46:51;37.33;;;18.65;;
12593;SDS011;6362;50.208;9.182;2023-02-16T08:49:18;37.95;;;19.40;;
12593;SDS011;6362;50.208;9.182;2023-02-16T08:51:46;38.33;;;19.90;;
12593;SDS011;6362;50.208;9.182;2023-02-16T08:54:21;37.65;;;20.40;;
12593;SDS011;6362;50.208;9.182;2023-02-16T08:56:54;36.88;;;18.67;;
12593;SDS011;6362;50.208;9.182;2023-02-16T08:59:20;35.80;;;19.77;;
12593;SDS011;6362;50.208;9.182;2023-02-16T09:01:47;37.13;;;18.98;;
12593;SDS011;6362;50.208;9.182;2023-02-16T09:04:13;37.40;;;19.13;;
12593;SDS011;6362;50.208;9.182;2023-02-16T09:06:40;37.95;;;20.48;;
12593;SDS011;6362;50.208;9.182;2023-02-16T09:09:08;35.00;;;18.52;;
12593;SDS011;6362;50.208;9.182;2023-02-16T09:11:35;35.90;;;18.85;;
12593;SDS011;6362;50.208;9.182;2023-02-16T09:14:01;36.78;;;18.50;;
12593;SDS011;6362;50.208;9.182;2023-02-16T09:16:28;38.60;;;19.20;;
12593;SDS011;6362;50.208;9.182;2023-02-16T09:18:57;39.42;;;19.33;;
12593;SDS011;6362;50.208;9.182;2023-02-16T09:21:25;32.22;;;18.13;;
12593;SDS011;6362;50.208;9.182;2023-02-16T09:23:52;34.20;;;19.08;;
12593;SDS011;6362;50.208;9.182;2023-02-16T09:26:20;34.00;;;17.27;;
12593;SDS011;6362;50.208;9.182;2023-02-16T09:28:47;36.10;;;19.88;;
12593;SDS011;6362;50.208;9.182;2023-02-16T09:31:18;37.90;;;18.88;;
12593;SDS011;6362;50.208;9.182;2023-02-16T09:33:53;35.03;;;18.02;;
12593;SDS011;6362;50.208;9.182;2023-02-16T09:36:20;35.00;;;18.30;;
12593;SDS011;6362;50.208;9.182;2023-02-16T09:38:46;30.83;;;17.80;;
12593;SDS011;6362;50.208;9.182;2023-02-16T09:46:47;34.78;;;19.45;;
12593;SDS011;6362;50.208;9.182;2023-02-16T09:49:24;30.25;;;17.23;;
12593;SDS011;6362;50.208;9.182;2023-02-16T09:57:20;30.30;;;17.52;;
12593;SDS011;6362;50.208;9.182;2023-02-16T10:00:19;34.13;;;18.27;;
12593;SDS011;6362;50.208;9.182;2023-02-16T10:08:20;27.08;;;16.77;;
12593;SDS011;6362;50.208;9.182;2023-02-16T10:11:07;30.45;;;17.63;;
12593;SDS011;6362;50.208;9.182;2023-02-16T10:13:58;29.75;;;17.17;;
12593;SDS011;6362;50.208;9.182;2023-02-16T10:16:30;34.50;;;18.33;;
12593;SDS011;6362;50.208;9.182;2023-02-16T10:19:02;27.95;;;17.45;;
12593;SDS011;6362;50.208;9.182;2023-02-16T10:21:43;27.13;;;16.63;;
12593;SDS011;6362;50.208;9.182;2023-02-16T10:24:14;27.25;;;17.92;;
12593;SDS011;6362;50.208;9.182;2023-02-16T10:26:47;27.42;;;18.70;;
12593;SDS011;6362;50.208;9.182;2023-02-16T10:29:22;29.08;;;17.02;;
12593;SDS011;6362;50.208;9.182;2023-02-16T10:47:52;25.88;;;16.63;;
12593;SDS011;6362;50.208;9.182;2023-02-16T10:52:49;24.73;;;15.75;;
12593;SDS011;6362;50.208;9.182;2023-02-16T10:55:18;26.27;;;15.93;;
12593;SDS011;6362;50.208;9.182;2023-02-16T10:57:49;27.73;;;16.48;;
12593;SDS011;6362;50.208;9.182;2023-02-16T11:00:17;28.35;;;16.20;;
12593;SDS011;6362;50.208;9.182;2023-02-16T11:02:48;27.33;;;16.83;;
12593;SDS011;6362;50.208;9.182;2023-02-16T11:07:54;24.15;;;16.10;;
12593;SDS011;6362;50.208;9.182;2023-02-16T11:10:32;27.67;;;16.77;;
12593;SDS011;6362;50.208;9.182;2023-02-16T11:13:00;25.13;;;16.52;;
12593;SDS011;6362;50.208;9.182;2023-02-16T11:15:26;28.20;;;17.73;;
12593;SDS011;6362;50.208;9.182;2023-02-16T11:20:33;24.33;;;16.52;;
12593;SDS011;6362;50.208;9.182;2023-02-16T11:28:33;27.15;;;18.73;;
12593;SDS011;6362;50.208;9.182;2023-02-16T11:33:35;24.55;;;16.23;;
12593;SDS011;6362;50.208;9.182;2023-02-16T11:36:02;26.63;;;16.80;;
12593;SDS011;6362;50.208;9.182;2023-02-16T11:38:41;24.50;;;16.83;;
12593;SDS011;6362;50.208;9.182;2023-02-16T11:41:19;24.02;;;17.38;;
12593;SDS011;6362;50.208;9.182;2023-02-16T11:43:48;25.60;;;17.23;;
12593;SDS011;6362;50.208;9.182;2023-02-16T11:46:15;25.08;;;16.20;;
12593;SDS011;6362;50.208;9.182;2023-02-16T11:48:43;25.33;;;17.73;;
12593;SDS011;6362;50.208;9.182;2023-02-16T11:51:10;27.10;;;18.77;;
12593;SDS011;6362;50.208;9.182;2023-02-16T11:53:39;25.58;;;17.48;;
12593;SDS011;6362;50.208;9.182;2023-02-16T11:58:35;25.42;;;18.23;;
12593;SDS011;6362;50.208;9.182;2023-02-16T12:01:21;24.50;;;18.17;;
12593;SDS011;6362;50.208;9.182;2023-02-16T12:27:03;26.73;;;18.77;;
12593;SDS011;6362;50.208;9.182;2023-02-16T12:29:49;32.63;;;20.27;;
12593;SDS011;6362;50.208;9.182;2023-02-16T12:32:34;33.15;;;23.17;;
12593;SDS011;6362;50.208;9.182;2023-02-16T12:43:52;37.85;;;22.42;;
12593;SDS011;6362;50.208;9.182;2023-02-16T12:46:27;32.75;;;20.15;;
12593;SDS011;6362;50.208;9.182;2023-02-16T12:49:04;33.75;;;21.35;;
12593;SDS011;6362;50.208;9.182;2023-02-16T12:51:40;27.52;;;19.77;;
12593;SDS011;6362;50.208;9.182;2023-02-16T12:56:54;29.20;;;20.40;;
12593;SDS011;6362;50.208;9.182;2023-02-16T12:59:41;28.80;;;21.67;;
12593;SDS011;6362;50.208;9.182;2023-02-16T13:02:14;31.63;;;21.05;;
12593;SDS011;6362;50.208;9.182;2023-02-16T13:04:47;32.63;;;22.27;;
12593;SDS011;6362;50.208;9.182;2023-02-16T13:12:39;30.75;;;22.08;;
12593;SDS011;6362;50.208;9.182;2023-02-16T13:15:18;35.10;;;22.15;;
12593;SDS011;6362;50.208;9.182;2023-02-16T13:20:17;30.65;;;22.65;;
12593;SDS011;6362;50.208;9.182;2023-02-16T13:30:59;34.33;;;23.67;;
12593;SDS011;6362;50.208;9.182;2023-02-16T13:39:33;34.92;;;23.13;;
12593;SDS011;6362;50.208;9.182;2023-02-16T13:44:57;33.53;;;22.02;;
12593;SDS011;6362;50.208;9.182;2023-02-16T13:47:27;32.78;;;22.30;;
12593;SDS011;6362;50.208;9.182;2023-02-16T13:49:56;31.60;;;22.42;;
12593;SDS011;6362;50.208;9.182;2023-02-16T13:52:34;32.63;;;22.38;;
12593;SDS011;6362;50.208;9.182;2023-02-16T13:55:05;30.58;;;21.88;;
12593;SDS011;6362;50.208;9.182;2023-02-16T14:08:23;32.92;;;21.08;;
12593;SDS011;6362;50.208;9.182;2023-02-16T14:24:05;37.80;;;21.73;;
12593;SDS011;6362;50.208;9.182;2023-02-16T14:26:53;31.60;;;21.50;;
12593;SDS011;6362;50.208;9.182;2023-02-16T14:29:25;30.00;;;19.95;;
12593;SDS011;6362;50.208;9.182;2023-02-16T14:32:05;34.25;;;21.70;;
12593;SDS011;6362;50.208;9.182;2023-02-16T14:35:30;33.88;;;21.38;;
12593;SDS011;6362;50.208;9.182;2023-02-16T14:37:55;34.78;;;21.30;;
12593;SDS011;6362;50.208;9.182;2023-02-16T14:43:42;30.80;;;18.55;;
12593;SDS011;6362;50.208;9.182;2023-02-16T14:51:56;30.13;;;19.67;;
12593;SDS011;6362;50.208;9.182;2023-02-16T14:54:55;32.90;;;19.97;;
12593;SDS011;6362;50.208;9.182;2023-02-16T15:03:00;32.90;;;19.63;;
12593;SDS011;6362;50.208;9.182;2023-02-16T15:05:32;32.45;;;21.08;;
12593;SDS011;6362;50.208;9.182;2023-02-16T15:08:01;30.75;;;20.98;;
12593;SDS011;6362;50.208;9.182;2023-02-16T15:11:12;31.13;;;19.50;;
12593;SDS011;6362;50.208;9.182;2023-02-16T15:13:49;30.60;;;20.63;;
12593;SDS011;6362;50.208;9.182;2023-02-16T15:16:17;26.55;;;18.58;;
12593;SDS011;6362;50.208;9.182;2023-02-16T15:18:54;32.72;;;22.00;;
12593;SDS011;6362;50.208;9.182;2023-02-16T15:21:25;32.67;;;20.60;;
12593;SDS011;6362;50.208;9.182;2023-02-16T15:23:56;38.25;;;25.08;;
12593;SDS011;6362;50.208;9.182;2023-02-16T15:26:50;39.35;;;23.88;;
12593;SDS011;6362;50.208;9.182;2023-02-16T15:29:22;34.45;;;22.83;;
12593;SDS011;6362;50.208;9.182;2023-02-16T15:31:50;36.55;;;23.58;;
12593;SDS011;6362;50.208;9.182;2023-02-16T15:34:35;33.63;;;22.30;;
12593;SDS011;6362;50.208;9.182;2023-02-16T15:37:01;32.75;;;22.10;;
12593;SDS011;6362;50.208;9.182;2023-02-16T15:39:46;36.65;;;20.80;;
12593;SDS011;6362;50.208;9.182;2023-02-16T15:42:22;36.53;;;22.75;;
12593;SDS011;6362;50.208;9.182;2023-02-16T15:44:52;37.65;;;23.35;;
12593;SDS011;6362;50.208;9.182;2023-02-16T15:47:21;41.70;;;23.95;;
12593;SDS011;6362;50.208;9.182;2023-02-16T15:49:48;38.22;;;23.85;;
12593;SDS011;6362;50.208;9.182;2023-02-16T15:52:19;41.92;;;24.73;;
12593;SDS011;6362;50.208;9.182;2023-02-16T15:54:50;40.00;;;24.05;;
12593;SDS011;6362;50.208;9.182;2023-02-16T15:57:19;38.20;;;23.55;;
12593;SDS011;6362;50.208;9.182;2023-02-16T15:59:55;42.00;;;24.58;;
12593;SDS011;6362;50.208;9.182;2023-02-16T16:02:25;39.67;;;25.98;;
12593;SDS011;6362;50.208;9.182;2023-02-16T16:04:59;41.30;;;25.87;;
12593;SDS011;6362;50.208;9.182;2023-02-16T16:07:27;36.50;;;22.70;;
12593;SDS011;6362;50.208;9.182;2023-02-16T16:09:56;35.50;;;22.65;;
12593;SDS011;6362;50.208;9.182;2023-02-16T16:12:23;38.45;;;23.90;;
12593;SDS011;6362;50.208;9.182;2023-02-16T16:14:51;34.10;;;21.42;;
12593;SDS011;6362;50.208;9.182;2023-02-16T16:17:18;33.97;;;21.88;;
12593;SDS011;6362;50.208;9.182;2023-02-16T16:19:48;32.78;;;21.23;;
12593;SDS011;6362;50.208;9.182;2023-02-16T16:22:32;35.72;;;21.83;;
12593;SDS011;6362;50.208;9.182;2023-02-16T16:25:00;32.58;;;20.88;;
12593;SDS011;6362;50.208;9.182;2023-02-16T16:27:28;32.53;;;20.80;;
12593;SDS011;6362;50.208;9.182;2023-02-16T16:33:01;34.55;;;21.10;;
12593;SDS011;6362;50.208;9.182;2023-02-16T16:35:39;28.27;;;18.80;;
12593;SDS011;6362;50.208;9.182;2023-02-16T16:41:10;29.30;;;19.13;;
12593;SDS011;6362;50.208;9.182;2023-02-16T16:43:53;38.92;;;22.92;;
12593;SDS011;6362;50.208;9.182;2023-02-16T16:46:27;42.83;;;26.90;;
12593;SDS011;6362;50.208;9.182;2023-02-16T16:48:56;38.30;;;23.95;;
12593;SDS011;6362;50.208;9.182;2023-02-16T16:53:55;37.78;;;23.08;;
12593;SDS011;6362;50.208;9.182;2023-02-16T16:56:24;36.83;;;22.40;;
12593;SDS011;6362;50.208;9.182;2023-02-16T16:58:52;35.70;;;22.27;;
12593;SDS011;6362;50.208;9.182;2023-02-16T17:01:21;35.03;;;23.50;;
12593;SDS011;6362;50.208;9.182;2023-02-16T17:03:47;40.92;;;25.13;;
12593;SDS011;6362;50.208;9.182;2023-02-16T17:06:13;40.05;;;23.48;;
12593;SDS011;6362;50.208;9.182;2023-02-16T17:08:40;39.97;;;24.83;;
12593;SDS011;6362;50.208;9.182;2023-02-16T17:11:06;39.42;;;25.35;;
12593;SDS011;6362;50.208;9.182;2023-02-16T17:13:33;41.58;;;25.42;;
12593;SDS011;6362;50.208;9.182;2023-02-16T17:18:29;43.53;;;25.02;;
12593;SDS011;6362;50.208;9.182;2023-02-16T17:20:54;46.15;;;27.63;;
12593;SDS011;6362;50.208;9.182;2023-02-16T17:23:21;41.58;;;26.13;;
12593;SDS011;6362;50.208;9.182;2023-02-16T17:25:47;44.22;;;26.85;;
12593;SDS011;6362;50.208;9.182;2023-02-16T17:28:13;39.35;;;24.90;;
12593;SDS011;6362;50.208;9.182;2023-02-16T17:30:40;42.03;;;26.67;;
12593;SDS011;6362;50.208;9.182;2023-02-16T17:33:06;39.08;;;26.17;;
12593;SDS011;6362;50.208;9.182;2023-02-16T17:35:33;38.60;;;24.05;;
12593;SDS011;6362;50.208;9.182;2023-02-16T17:38:08;38.88;;;23.52;;
12593;SDS011;6362;50.208;9.182;2023-02-16T17:40:35;34.78;;;21.75;;
12593;SDS011;6362;50.208;9.182;2023-02-16T17:43:00;39.67;;;25.80;;
12593;SDS011;6362;50.208;9.182;2023-02-16T17:45:26;39.28;;;23.98;;
12593;SDS011;6362;50.208;9.182;2023-02-16T17:47:51;42.72;;;27.55;;
12593;SDS011;6362;50.208;9.182;2023-02-16T17:50:17;41.38;;;25.77;;
12593;SDS011;6362;50.208;9.182;2023-02-16T17:52:44;43.92;;;26.13;;
12593;SDS011;6362;50.208;9.182;2023-02-16T17:55:10;38.38;;;23.67;;
12593;SDS011;6362;50.208;9.182;2023-02-16T17:57:36;44.28;;;28.58;;
12593;SDS011;6362;50.208;9.182;2023-02-16T18:00:04;44.05;;;27.20;;
12593;SDS011;6362;50.208;9.182;2023-02-16T18:02:30;39.97;;;25.58;;
12593;SDS011;6362;50.208;9.182;2023-02-16T18:04:55;31.45;;;20.95;;
12593;SDS011;6362;50.208;9.182;2023-02-16T18:07:21;31.95;;;20.13;;
12593;SDS011;6362;50.208;9.182;2023-02-16T18:09:47;33.30;;;21.02;;
12593;SDS011;6362;50.208;9.182;2023-02-16T18:12:12;35.35;;;22.15;;
12593;SDS011;6362;50.208;9.182;2023-02-16T18:14:38;29.77;;;18.40;;
12593;SDS011;6362;50.208;9.182;2023-02-16T18:17:04;33.58;;;21.67;;
12593;SDS011;6362;50.208;9.182;2023-02-16T18:19:31;37.30;;;25.05;;
12593;SDS011;6362;50.208;9.182;2023-02-16T18:21:58;41.40;;;27.70;;